sensor_id;sensor_type;location;lat;lon;timestamp;P1;durP1;ratioP1;P2;durP2;ratioP2
32333;SDS011;18810;53.040;8.850;2022-07-30T00:02:13;8.93;;;4.13;;
32333;SDS011;18810;53.040;8.850;2022-07-30T00:04:40;6.82;;;3.95;;
32333;SDS011;18810;53.040;8.850;2022-07-30T00:07:06;6.05;;;3.95;;
32333;SDS011;18810;53.040;8.850;2022-07-30T00:09:32;7.03;;;4.43;;
32333;SDS011;18810;53.040;8.850;2022-07-30T00:11:57;5.03;;;3.85;;
32333;SDS011;18810;53.040;8.850;2022-07-30T00:14:23;8.73;;;4.50;;
32333;SDS011;18810;53.040;8.850;2022-07-30T00:16:50;5.40;;;3.90;;
32333;SDS011;18810;53.040;8.850;2022-07-30T00:19:16;4.55;;;3.72;;
32333;SDS011;18810;53.040;8.850;2022-07-30T00:21:41;8.23;;;3.63;;
32333;SDS011;18810;53.040;8.850;2022-07-30T00:24:07;7.20;;;4.35;;
32333;SDS011;18810;53.040;8.850;2022-07-30T00:26:33;6.43;;;4.50;;
32333;SDS011;18810;53.040;8.850;2022-07-30T00:28:59;5.72;;;4.78;;
32333;SDS011;18810;53.040;8.850;2022-07-30T00:31:25;6.80;;;4.30;;
32333;SDS011;18810;53.040;8.850;2022-07-30T00:33:51;6.13;;;4.85;;
32333;SDS011;18810;53.040;8.850;2022-07-30T00:36:17;7.45;;;4.40;;
32333;SDS011;18810;53.040;8.850;2022-07-30T00:38:43;9.52;;;4.45;;
32333;SDS011;18810;53.040;8.850;2022-07-30T00:41:09;6.85;;;4.78;;
32333;SDS011;18810;53.040;8.850;2022-07-30T00:43:34;7.40;;;5.10;;
32333;SDS011;18810;53.040;8.850;2022-07-30T00:46:00;7.97;;;4.88;;
32333;SDS011;18810;53.040;8.850;2022-07-30T00:48:26;10.75;;;5.20;;
32333;SDS011;18810;53.040;8.850;2022-07-30T00:50:52;9.23;;;5.20;;
32333;SDS011;18810;53.040;8.850;2022-07-30T00:53:18;10.73;;;5.35;;
32333;SDS011;18810;53.040;8.850;2022-07-30T00:55:44;7.07;;;5.32;;
32333;SDS011;18810;53.040;8.850;2022-07-30T00:58:10;11.88;;;5.75;;
32333;SDS011;18810;53.040;8.850;2022-07-30T01:00:36;10.50;;;6.20;;
32333;SDS011;18810;53.040;8.850;2022-07-30T01:03:02;6.97;;;4.88;;
32333;SDS011;18810;53.040;8.850;2022-07-30T01:05:28;8.90;;;5.47;;
32333;SDS011;18810;53.040;8.850;2022-07-30T01:07:54;8.60;;;5.05;;
32333;SDS011;18810;53.040;8.850;2022-07-30T01:10:21;9.07;;;5.65;;
32333;SDS011;18810;53.040;8.850;2022-07-30T01:12:47;7.07;;;5.45;;
32333;SDS011;18810;53.040;8.850;2022-07-30T01:15:16;7.05;;;5.22;;
32333;SDS011;18810;53.040;8.850;2022-07-30T01:17:43;9.95;;;5.65;;
32333;SDS011;18810;53.040;8.850;2022-07-30T01:20:43;7.38;;;4.93;;
32333;SDS011;18810;53.040;8.850;2022-07-30T01:23:27;6.95;;;4.60;;
32333;SDS011;18810;53.040;8.850;2022-07-30T01:28:27;6.55;;;4.85;;
32333;SDS011;18810;53.040;8.850;2022-07-30T01:30:56;8.85;;;5.18;;
32333;SDS011;18810;53.040;8.850;2022-07-30T01:33:23;8.45;;;5.38;;
32333;SDS011;18810;53.040;8.850;2022-07-30T01:35:50;10.88;;;5.80;;
32333;SDS011;18810;53.040;8.850;2022-07-30T01:38:18;11.15;;;4.90;;
32333;SDS011;18810;53.040;8.850;2022-07-30T01:40:46;8.38;;;5.30;;
32333;SDS011;18810;53.040;8.850;2022-07-30T01:43:17;8.40;;;5.40;;
32333;SDS011;18810;53.040;8.850;2022-07-30T01:45:43;9.13;;;5.38;;
32333;SDS011;18810;53.040;8.850;2022-07-30T01:48:12;7.10;;;5.03;;
32333;SDS011;18810;53.040;8.850;2022-07-30T01:50:45;9.10;;;5.45;;
32333;SDS011;18810;53.040;8.850;2022-07-30T01:53:19;7.68;;;5.22;;
32333;SDS011;18810;53.040;8.850;2022-07-30T01:55:47;7.72;;;5.68;;
32333;SDS011;18810;53.040;8.850;2022-07-30T01:58:15;8.65;;;4.95;;
32333;SDS011;18810;53.040;8.850;2022-07-30T02:00:43;6.72;;;5.20;;
32333;SDS011;18810;53.040;8.850;2022-07-30T02:03:11;10.07;;;5.80;;
32333;SDS011;18810;53.040;8.850;2022-07-30T02:05:38;5.82;;;4.78;;
32333;SDS011;18810;53.040;8.850;2022-07-30T02:08:11;6.50;;;4.90;;
32333;SDS011;18810;53.040;8.850;2022-07-30T02:10:53;8.60;;;6.35;;
32333;SDS011;18810;53.040;8.850;2022-07-30T02:13:26;6.85;;;4.80;;
32333;SDS011;18810;53.040;8.850;2022-07-30T02:15:56;6.75;;;5.50;;
32333;SDS011;18810;53.040;8.850;2022-07-30T02:18:51;8.43;;;5.35;;
32333;SDS011;18810;53.040;8.850;2022-07-30T02:21:26;8.57;;;5.38;;
32333;SDS011;18810;53.040;8.850;2022-07-30T02:23:56;6.32;;;5.03;;
32333;SDS011;18810;53.040;8.850;2022-07-30T02:26:23;9.63;;;5.65;;
32333;SDS011;18810;53.040;8.850;2022-07-30T02:28:52;7.35;;;4.97;;
32333;SDS011;18810;53.040;8.850;2022-07-30T02:31:22;7.28;;;5.40;;
32333;SDS011;18810;53.040;8.850;2022-07-30T02:33:52;10.97;;;5.90;;
32333;SDS011;18810;53.040;8.850;2022-07-30T02:36:22;13.95;;;6.10;;
32333;SDS011;18810;53.040;8.850;2022-07-30T02:38:49;11.45;;;5.95;;
32333;SDS011;18810;53.040;8.850;2022-07-30T02:41:16;8.63;;;6.07;;
32333;SDS011;18810;53.040;8.850;2022-07-30T02:43:44;10.85;;;6.60;;
32333;SDS011;18810;53.040;8.850;2022-07-30T02:46:13;9.23;;;5.75;;
32333;SDS011;18810;53.040;8.850;2022-07-30T02:48:42;9.02;;;6.25;;
32333;SDS011;18810;53.040;8.850;2022-07-30T02:51:10;9.52;;;6.93;;
32333;SDS011;18810;53.040;8.850;2022-07-30T02:53:39;7.55;;;6.60;;
32333;SDS011;18810;53.040;8.850;2022-07-30T02:56:11;10.95;;;6.32;;
32333;SDS011;18810;53.040;8.850;2022-07-30T02:58:40;9.80;;;5.95;;
32333;SDS011;18810;53.040;8.850;2022-07-30T03:01:09;10.48;;;6.43;;
32333;SDS011;18810;53.040;8.850;2022-07-30T03:03:37;9.80;;;6.47;;
32333;SDS011;18810;53.040;8.850;2022-07-30T03:06:04;9.02;;;5.68;;
32333;SDS011;18810;53.040;8.850;2022-07-30T03:08:31;10.00;;;6.35;;
32333;SDS011;18810;53.040;8.850;2022-07-30T03:10:57;6.38;;;5.75;;
32333;SDS011;18810;53.040;8.850;2022-07-30T03:13:24;7.95;;;5.97;;
32333;SDS011;18810;53.040;8.850;2022-07-30T03:15:50;10.77;;;6.97;;
32333;SDS011;18810;53.040;8.850;2022-07-30T03:18:17;10.65;;;6.20;;
32333;SDS011;18810;53.040;8.850;2022-07-30T03:20:45;8.60;;;6.85;;
32333;SDS011;18810;53.040;8.850;2022-07-30T03:23:15;10.53;;;6.63;;
32333;SDS011;18810;53.040;8.850;2022-07-30T03:25:44;7.78;;;6.00;;
32333;SDS011;18810;53.040;8.850;2022-07-30T03:28:16;10.35;;;6.55;;
32333;SDS011;18810;53.040;8.850;2022-07-30T03:30:43;8.27;;;5.93;;
32333;SDS011;18810;53.040;8.850;2022-07-30T03:33:10;9.50;;;6.70;;
32333;SDS011;18810;53.040;8.850;2022-07-30T03:35:36;8.82;;;6.78;;
32333;SDS011;18810;53.040;8.850;2022-07-30T03:38:03;13.32;;;7.28;;
32333;SDS011;18810;53.040;8.850;2022-07-30T03:40:29;9.82;;;6.65;;
32333;SDS011;18810;53.040;8.850;2022-07-30T03:42:56;8.15;;;6.38;;
32333;SDS011;18810;53.040;8.850;2022-07-30T03:45:22;9.63;;;6.93;;
32333;SDS011;18810;53.040;8.850;2022-07-30T03:47:49;10.32;;;7.13;;
32333;SDS011;18810;53.040;8.850;2022-07-30T03:50:15;10.40;;;7.20;;
32333;SDS011;18810;53.040;8.850;2022-07-30T03:52:41;13.60;;;7.55;;
32333;SDS011;18810;53.040;8.850;2022-07-30T03:55:08;12.20;;;7.35;;
32333;SDS011;18810;53.040;8.850;2022-07-30T03:57:37;9.63;;;6.70;;
32333;SDS011;18810;53.040;8.850;2022-07-30T04:00:04;9.27;;;6.93;;
32333;SDS011;18810;53.040;8.850;2022-07-30T04:02:39;7.50;;;6.45;;
32333;SDS011;18810;53.040;8.850;2022-07-30T04:05:05;12.75;;;7.18;;
32333;SDS011;18810;53.040;8.850;2022-07-30T04:07:31;10.10;;;6.75;;
32333;SDS011;18810;53.040;8.850;2022-07-30T04:09:57;10.68;;;7.20;;
32333;SDS011;18810;53.040;8.850;2022-07-30T04:12:23;7.85;;;6.60;;
32333;SDS011;18810;53.040;8.850;2022-07-30T04:14:50;9.30;;;7.07;;
32333;SDS011;18810;53.040;8.850;2022-07-30T04:17:21;11.02;;;7.15;;
32333;SDS011;18810;53.040;8.850;2022-07-30T04:20:16;11.18;;;7.50;;
32333;SDS011;18810;53.040;8.850;2022-07-30T04:22:47;10.23;;;7.32;;
32333;SDS011;18810;53.040;8.850;2022-07-30T04:25:14;11.30;;;7.20;;
32333;SDS011;18810;53.040;8.850;2022-07-30T04:27:40;12.35;;;8.02;;
32333;SDS011;18810;53.040;8.850;2022-07-30T04:30:06;10.05;;;7.88;;
32333;SDS011;18810;53.040;8.850;2022-07-30T04:32:33;10.75;;;7.15;;
32333;SDS011;18810;53.040;8.850;2022-07-30T04:35:00;11.48;;;7.53;;
32333;SDS011;18810;53.040;8.850;2022-07-30T04:37:28;9.93;;;7.13;;
32333;SDS011;18810;53.040;8.850;2022-07-30T04:39:54;10.88;;;8.10;;
32333;SDS011;18810;53.040;8.850;2022-07-30T04:42:22;11.13;;;7.10;;
32333;SDS011;18810;53.040;8.850;2022-07-30T04:44:48;13.60;;;7.03;;
32333;SDS011;18810;53.040;8.850;2022-07-30T04:47:14;12.20;;;7.13;;
32333;SDS011;18810;53.040;8.850;2022-07-30T04:49:40;10.38;;;7.05;;
32333;SDS011;18810;53.040;8.850;2022-07-30T04:52:07;12.85;;;6.88;;
32333;SDS011;18810;53.040;8.850;2022-07-30T04:54:53;8.35;;;7.38;;
32333;SDS011;18810;53.040;8.850;2022-07-30T04:57:23;8.57;;;6.28;;
32333;SDS011;18810;53.040;8.850;2022-07-30T04:59:50;9.95;;;7.40;;
32333;SDS011;18810;53.040;8.850;2022-07-30T05:02:16;10.60;;;7.32;;
32333;SDS011;18810;53.040;8.850;2022-07-30T05:04:43;9.07;;;7.10;;
32333;SDS011;18810;53.040;8.850;2022-07-30T05:07:11;9.40;;;6.88;;
32333;SDS011;18810;53.040;8.850;2022-07-30T05:09:41;12.43;;;7.85;;
32333;SDS011;18810;53.040;8.850;2022-07-30T05:12:07;9.52;;;6.97;;
32333;SDS011;18810;53.040;8.850;2022-07-30T05:14:34;10.70;;;7.60;;
32333;SDS011;18810;53.040;8.850;2022-07-30T05:17:00;11.40;;;8.10;;
32333;SDS011;18810;53.040;8.850;2022-07-30T05:19:25;12.05;;;8.07;;
32333;SDS011;18810;53.040;8.850;2022-07-30T05:21:51;11.20;;;7.75;;
32333;SDS011;18810;53.040;8.850;2022-07-30T05:24:17;10.18;;;7.07;;
32333;SDS011;18810;53.040;8.850;2022-07-30T05:26:43;9.32;;;7.63;;
32333;SDS011;18810;53.040;8.850;2022-07-30T05:29:09;12.48;;;7.50;;
32333;SDS011;18810;53.040;8.850;2022-07-30T05:31:36;12.60;;;7.53;;
32333;SDS011;18810;53.040;8.850;2022-07-30T05:34:02;9.90;;;6.63;;
32333;SDS011;18810;53.040;8.850;2022-07-30T05:36:28;12.32;;;8.13;;
32333;SDS011;18810;53.040;8.850;2022-07-30T05:38:54;8.32;;;6.35;;
32333;SDS011;18810;53.040;8.850;2022-07-30T05:41:19;10.75;;;6.78;;
32333;SDS011;18810;53.040;8.850;2022-07-30T05:43:45;10.10;;;6.53;;
32333;SDS011;18810;53.040;8.850;2022-07-30T05:46:11;10.50;;;7.03;;
32333;SDS011;18810;53.040;8.850;2022-07-30T05:48:37;10.18;;;6.75;;
32333;SDS011;18810;53.040;8.850;2022-07-30T05:51:04;11.75;;;7.03;;
32333;SDS011;18810;53.040;8.850;2022-07-30T05:53:30;9.95;;;7.25;;
32333;SDS011;18810;53.040;8.850;2022-07-30T05:55:56;8.75;;;6.78;;
32333;SDS011;18810;53.040;8.850;2022-07-30T05:58:22;12.95;;;7.57;;
32333;SDS011;18810;53.040;8.850;2022-07-30T06:00:48;11.50;;;9.50;;
32333;SDS011;18810;53.040;8.850;2022-07-30T06:03:14;14.13;;;8.93;;
32333;SDS011;18810;53.040;8.850;2022-07-30T06:05:40;12.07;;;8.82;;
32333;SDS011;18810;53.040;8.850;2022-07-30T06:08:06;11.32;;;7.93;;
32333;SDS011;18810;53.040;8.850;2022-07-30T06:10:33;12.93;;;8.65;;
32333;SDS011;18810;53.040;8.850;2022-07-30T06:12:59;14.25;;;9.48;;
32333;SDS011;18810;53.040;8.850;2022-07-30T06:15:25;13.32;;;8.30;;
32333;SDS011;18810;53.040;8.850;2022-07-30T06:17:51;12.88;;;8.60;;
32333;SDS011;18810;53.040;8.850;2022-07-30T06:20:18;13.35;;;9.25;;
32333;SDS011;18810;53.040;8.850;2022-07-30T06:22:44;9.57;;;7.70;;
32333;SDS011;18810;53.040;8.850;2022-07-30T06:25:11;12.27;;;8.48;;
32333;SDS011;18810;53.040;8.850;2022-07-30T06:27:37;10.85;;;9.23;;
32333;SDS011;18810;53.040;8.850;2022-07-30T06:30:04;15.50;;;9.25;;
32333;SDS011;18810;53.040;8.850;2022-07-30T06:32:34;14.30;;;10.10;;
32333;SDS011;18810;53.040;8.850;2022-07-30T06:35:00;13.70;;;9.45;;
32333;SDS011;18810;53.040;8.850;2022-07-30T06:37:26;14.82;;;10.73;;
32333;SDS011;18810;53.040;8.850;2022-07-30T06:39:52;11.95;;;9.07;;
32333;SDS011;18810;53.040;8.850;2022-07-30T06:42:18;13.77;;;9.30;;
32333;SDS011;18810;53.040;8.850;2022-07-30T06:44:44;13.50;;;9.95;;
32333;SDS011;18810;53.040;8.850;2022-07-30T06:47:10;14.25;;;8.60;;
32333;SDS011;18810;53.040;8.850;2022-07-30T06:49:36;9.85;;;7.90;;
32333;SDS011;18810;53.040;8.850;2022-07-30T06:52:01;12.48;;;9.05;;
32333;SDS011;18810;53.040;8.850;2022-07-30T06:54:28;9.73;;;8.73;;
32333;SDS011;18810;53.040;8.850;2022-07-30T06:57:09;11.70;;;9.10;;
32333;SDS011;18810;53.040;8.850;2022-07-30T06:59:34;12.82;;;8.57;;
32333;SDS011;18810;53.040;8.850;2022-07-30T07:02:00;11.05;;;8.82;;
32333;SDS011;18810;53.040;8.850;2022-07-30T07:04:26;14.75;;;9.05;;
32333;SDS011;18810;53.040;8.850;2022-07-30T07:06:51;10.95;;;9.18;;
32333;SDS011;18810;53.040;8.850;2022-07-30T07:09:17;11.93;;;9.38;;
32333;SDS011;18810;53.040;8.850;2022-07-30T07:11:43;12.32;;;8.60;;
32333;SDS011;18810;53.040;8.850;2022-07-30T07:14:08;11.90;;;8.93;;
32333;SDS011;18810;53.040;8.850;2022-07-30T07:16:34;12.10;;;9.55;;
32333;SDS011;18810;53.040;8.850;2022-07-30T07:18:59;16.35;;;9.90;;
32333;SDS011;18810;53.040;8.850;2022-07-30T07:21:25;13.65;;;8.63;;
32333;SDS011;18810;53.040;8.850;2022-07-30T07:23:50;10.32;;;8.32;;
32333;SDS011;18810;53.040;8.850;2022-07-30T07:26:16;13.38;;;10.25;;
32333;SDS011;18810;53.040;8.850;2022-07-30T07:28:42;9.90;;;7.45;;
32333;SDS011;18810;53.040;8.850;2022-07-30T07:31:08;11.07;;;8.48;;
32333;SDS011;18810;53.040;8.850;2022-07-30T07:33:34;9.70;;;8.27;;
32333;SDS011;18810;53.040;8.850;2022-07-30T07:36:00;11.07;;;8.10;;
32333;SDS011;18810;53.040;8.850;2022-07-30T07:38:26;9.75;;;6.85;;
32333;SDS011;18810;53.040;8.850;2022-07-30T07:40:52;10.98;;;7.78;;
32333;SDS011;18810;53.040;8.850;2022-07-30T07:43:18;11.10;;;7.32;;
32333;SDS011;18810;53.040;8.850;2022-07-30T07:45:43;9.75;;;6.88;;
32333;SDS011;18810;53.040;8.850;2022-07-30T07:48:12;10.68;;;7.82;;
32333;SDS011;18810;53.040;8.850;2022-07-30T07:50:37;11.60;;;7.63;;
32333;SDS011;18810;53.040;8.850;2022-07-30T07:53:04;11.32;;;7.35;;
32333;SDS011;18810;53.040;8.850;2022-07-30T07:55:30;9.93;;;7.75;;
32333;SDS011;18810;53.040;8.850;2022-07-30T07:57:57;10.85;;;6.70;;
32333;SDS011;18810;53.040;8.850;2022-07-30T08:00:22;10.25;;;7.03;;
32333;SDS011;18810;53.040;8.850;2022-07-30T08:02:48;10.95;;;7.50;;
32333;SDS011;18810;53.040;8.850;2022-07-30T08:05:14;11.55;;;7.25;;
32333;SDS011;18810;53.040;8.850;2022-07-30T08:07:40;10.48;;;6.72;;
32333;SDS011;18810;53.040;8.850;2022-07-30T08:10:06;10.73;;;6.95;;
32333;SDS011;18810;53.040;8.850;2022-07-30T08:12:33;11.30;;;6.60;;
32333;SDS011;18810;53.040;8.850;2022-07-30T08:14:59;13.07;;;6.82;;
32333;SDS011;18810;53.040;8.850;2022-07-30T08:17:24;9.55;;;7.05;;
32333;SDS011;18810;53.040;8.850;2022-07-30T08:19:50;9.82;;;6.47;;
32333;SDS011;18810;53.040;8.850;2022-07-30T08:22:18;7.97;;;5.47;;
32333;SDS011;18810;53.040;8.850;2022-07-30T08:24:44;8.73;;;6.20;;
32333;SDS011;18810;53.040;8.850;2022-07-30T08:27:10;10.88;;;7.22;;
32333;SDS011;18810;53.040;8.850;2022-07-30T08:29:35;11.60;;;6.45;;
32333;SDS011;18810;53.040;8.850;2022-07-30T08:32:01;8.93;;;5.78;;
32333;SDS011;18810;53.040;8.850;2022-07-30T08:34:27;10.48;;;6.60;;
32333;SDS011;18810;53.040;8.850;2022-07-30T08:36:53;10.35;;;5.50;;
32333;SDS011;18810;53.040;8.850;2022-07-30T08:39:20;11.50;;;6.68;;
32333;SDS011;18810;53.040;8.850;2022-07-30T08:41:45;10.95;;;6.85;;
32333;SDS011;18810;53.040;8.850;2022-07-30T08:44:12;9.50;;;7.15;;
32333;SDS011;18810;53.040;8.850;2022-07-30T08:46:41;9.23;;;6.93;;
32333;SDS011;18810;53.040;8.850;2022-07-30T08:49:08;9.93;;;6.50;;
32333;SDS011;18810;53.040;8.850;2022-07-30T08:51:36;10.95;;;7.47;;
32333;SDS011;18810;53.040;8.850;2022-07-30T08:54:02;12.63;;;7.47;;
32333;SDS011;18810;53.040;8.850;2022-07-30T08:56:30;10.55;;;6.30;;
32333;SDS011;18810;53.040;8.850;2022-07-30T08:58:57;7.80;;;5.82;;
32333;SDS011;18810;53.040;8.850;2022-07-30T09:01:24;9.65;;;5.65;;
32333;SDS011;18810;53.040;8.850;2022-07-30T09:03:50;11.32;;;7.03;;
32333;SDS011;18810;53.040;8.850;2022-07-30T09:06:16;12.40;;;6.70;;
32333;SDS011;18810;53.040;8.850;2022-07-30T09:08:41;9.18;;;6.90;;
32333;SDS011;18810;53.040;8.850;2022-07-30T09:11:07;11.93;;;7.63;;
32333;SDS011;18810;53.040;8.850;2022-07-30T09:13:37;8.82;;;6.10;;
32333;SDS011;18810;53.040;8.850;2022-07-30T09:16:05;12.48;;;5.13;;
32333;SDS011;18810;53.040;8.850;2022-07-30T09:18:35;7.80;;;5.55;;
32333;SDS011;18810;53.040;8.850;2022-07-30T09:21:13;8.52;;;5.18;;
32333;SDS011;18810;53.040;8.850;2022-07-30T09:24:26;11.60;;;6.13;;
32333;SDS011;18810;53.040;8.850;2022-07-30T09:26:51;9.43;;;5.80;;
32333;SDS011;18810;53.040;8.850;2022-07-30T09:29:17;10.35;;;5.90;;
32333;SDS011;18810;53.040;8.850;2022-07-30T09:31:58;10.65;;;5.57;;
32333;SDS011;18810;53.040;8.850;2022-07-30T09:34:35;10.18;;;6.35;;
32333;SDS011;18810;53.040;8.850;2022-07-30T09:37:03;7.00;;;5.35;;
32333;SDS011;18810;53.040;8.850;2022-07-30T09:39:40;15.55;;;7.07;;
32333;SDS011;18810;53.040;8.850;2022-07-30T09:42:20;17.23;;;7.65;;
32333;SDS011;18810;53.040;8.850;2022-07-30T09:44:50;11.20;;;5.70;;
32333;SDS011;18810;53.040;8.850;2022-07-30T09:47:32;9.20;;;6.20;;
32333;SDS011;18810;53.040;8.850;2022-07-30T09:50:13;9.70;;;5.30;;
32333;SDS011;18810;53.040;8.850;2022-07-30T09:52:41;8.00;;;4.73;;
32333;SDS011;18810;53.040;8.850;2022-07-30T09:55:09;9.52;;;5.90;;
32333;SDS011;18810;53.040;8.850;2022-07-30T09:57:38;6.70;;;4.28;;
32333;SDS011;18810;53.040;8.850;2022-07-30T10:00:23;6.35;;;4.85;;
32333;SDS011;18810;53.040;8.850;2022-07-30T10:02:50;9.38;;;4.90;;
32333;SDS011;18810;53.040;8.850;2022-07-30T10:05:17;9.95;;;5.80;;
32333;SDS011;18810;53.040;8.850;2022-07-30T10:07:51;8.38;;;4.75;;
32333;SDS011;18810;53.040;8.850;2022-07-30T10:10:29;7.80;;;3.88;;
32333;SDS011;18810;53.040;8.850;2022-07-30T10:13:02;8.35;;;4.35;;
32333;SDS011;18810;53.040;8.850;2022-07-30T10:15:32;6.60;;;3.25;;
32333;SDS011;18810;53.040;8.850;2022-07-30T10:17:59;5.45;;;3.45;;
32333;SDS011;18810;53.040;8.850;2022-07-30T10:20:26;6.13;;;3.47;;
32333;SDS011;18810;53.040;8.850;2022-07-30T10:22:52;5.00;;;3.75;;
32333;SDS011;18810;53.040;8.850;2022-07-30T10:25:22;7.05;;;3.85;;
32333;SDS011;18810;53.040;8.850;2022-07-30T10:27:49;8.48;;;4.75;;
32333;SDS011;18810;53.040;8.850;2022-07-30T10:30:15;10.70;;;4.60;;
32333;SDS011;18810;53.040;8.850;2022-07-30T10:32:42;9.07;;;5.20;;
32333;SDS011;18810;53.040;8.850;2022-07-30T10:35:09;5.30;;;3.78;;
32333;SDS011;18810;53.040;8.850;2022-07-30T10:37:36;9.10;;;3.88;;
32333;SDS011;18810;53.040;8.850;2022-07-30T10:45:19;5.20;;;4.13;;
32333;SDS011;18810;53.040;8.850;2022-07-30T10:47:51;9.90;;;5.15;;
32333;SDS011;18810;53.040;8.850;2022-07-30T10:50:19;5.13;;;4.50;;
32333;SDS011;18810;53.040;8.850;2022-07-30T10:55:25;8.60;;;5.25;;
32333;SDS011;18810;53.040;8.850;2022-07-30T11:03:24;8.75;;;4.95;;
32333;SDS011;18810;53.040;8.850;2022-07-30T11:08:43;8.80;;;5.72;;
32333;SDS011;18810;53.040;8.850;2022-07-30T11:13:54;6.13;;;3.88;;
32333;SDS011;18810;53.040;8.850;2022-07-30T11:16:22;6.85;;;5.10;;
32333;SDS011;18810;53.040;8.850;2022-07-30T11:19:09;9.55;;;5.70;;
32333;SDS011;18810;53.040;8.850;2022-07-30T11:22:20;10.10;;;6.57;;
32333;SDS011;18810;53.040;8.850;2022-07-30T11:24:53;11.15;;;6.68;;
32333;SDS011;18810;53.040;8.850;2022-07-30T11:28:01;9.20;;;5.00;;
32333;SDS011;18810;53.040;8.850;2022-07-30T11:32:46;7.63;;;4.10;;
32333;SDS011;18810;53.040;8.850;2022-07-30T11:46:11;7.70;;;4.15;;
32333;SDS011;18810;53.040;8.850;2022-07-30T11:51:21;7.07;;;4.13;;
32333;SDS011;18810;53.040;8.850;2022-07-30T11:54:06;10.30;;;4.93;;
32333;SDS011;18810;53.040;8.850;2022-07-30T11:56:46;9.55;;;5.00;;
32333;SDS011;18810;53.040;8.850;2022-07-30T11:59:13;11.10;;;5.15;;
32333;SDS011;18810;53.040;8.850;2022-07-30T12:01:39;9.98;;;5.20;;
32333;SDS011;18810;53.040;8.850;2022-07-30T12:04:06;8.77;;;5.10;;
32333;SDS011;18810;53.040;8.850;2022-07-30T12:06:33;7.07;;;4.80;;
32333;SDS011;18810;53.040;8.850;2022-07-30T12:09:07;7.25;;;5.05;;
32333;SDS011;18810;53.040;8.850;2022-07-30T12:11:33;9.35;;;5.07;;
32333;SDS011;18810;53.040;8.850;2022-07-30T12:14:00;8.27;;;5.05;;
32333;SDS011;18810;53.040;8.850;2022-07-30T12:16:27;10.55;;;5.10;;
32333;SDS011;18810;53.040;8.850;2022-07-30T12:18:54;9.25;;;4.60;;
32333;SDS011;18810;53.040;8.850;2022-07-30T12:21:25;10.15;;;5.10;;
32333;SDS011;18810;53.040;8.850;2022-07-30T12:23:54;8.32;;;4.72;;
32333;SDS011;18810;53.040;8.850;2022-07-30T12:26:29;9.82;;;5.40;;
32333;SDS011;18810;53.040;8.850;2022-07-30T12:29:03;9.13;;;5.50;;
32333;SDS011;18810;53.040;8.850;2022-07-30T12:31:38;8.23;;;4.97;;
32333;SDS011;18810;53.040;8.850;2022-07-30T12:34:04;5.32;;;4.18;;
32333;SDS011;18810;53.040;8.850;2022-07-30T12:36:45;7.47;;;4.50;;
32333;SDS011;18810;53.040;8.850;2022-07-30T12:39:17;5.07;;;4.10;;
32333;SDS011;18810;53.040;8.850;2022-07-30T12:41:48;8.13;;;4.70;;
32333;SDS011;18810;53.040;8.850;2022-07-30T12:44:34;7.32;;;4.40;;
32333;SDS011;18810;53.040;8.850;2022-07-30T12:47:01;9.68;;;4.65;;
32333;SDS011;18810;53.040;8.850;2022-07-30T12:49:28;8.85;;;4.95;;
32333;SDS011;18810;53.040;8.850;2022-07-30T12:51:54;6.88;;;4.25;;
32333;SDS011;18810;53.040;8.850;2022-07-30T12:54:21;5.47;;;4.22;;
32333;SDS011;18810;53.040;8.850;2022-07-30T12:59:37;6.75;;;4.80;;
32333;SDS011;18810;53.040;8.850;2022-07-30T13:02:03;7.15;;;4.68;;
32333;SDS011;18810;53.040;8.850;2022-07-30T13:04:28;10.07;;;4.63;;
32333;SDS011;18810;53.040;8.850;2022-07-30T13:07:08;7.07;;;4.85;;
32333;SDS011;18810;53.040;8.850;2022-07-30T13:09:35;8.20;;;4.35;;
32333;SDS011;18810;53.040;8.850;2022-07-30T13:12:02;5.00;;;3.80;;
32333;SDS011;18810;53.040;8.850;2022-07-30T13:14:28;8.60;;;4.30;;
32333;SDS011;18810;53.040;8.850;2022-07-30T13:16:54;5.68;;;4.68;;
32333;SDS011;18810;53.040;8.850;2022-07-30T13:19:22;4.70;;;4.00;;
32333;SDS011;18810;53.040;8.850;2022-07-30T13:21:48;7.38;;;4.20;;
32333;SDS011;18810;53.040;8.850;2022-07-30T13:24:14;5.75;;;4.18;;
32333;SDS011;18810;53.040;8.850;2022-07-30T13:26:40;6.68;;;3.95;;
32333;SDS011;18810;53.040;8.850;2022-07-30T13:29:06;5.53;;;4.20;;
32333;SDS011;18810;53.040;8.850;2022-07-30T13:31:33;6.32;;;3.90;;
32333;SDS011;18810;53.040;8.850;2022-07-30T13:33:59;7.85;;;4.40;;
32333;SDS011;18810;53.040;8.850;2022-07-30T13:36:26;9.05;;;4.03;;
32333;SDS011;18810;53.040;8.850;2022-07-30T13:38:52;6.50;;;4.28;;
32333;SDS011;18810;53.040;8.850;2022-07-30T13:41:18;6.32;;;3.70;;
32333;SDS011;18810;53.040;8.850;2022-07-30T13:43:45;5.53;;;3.85;;
32333;SDS011;18810;53.040;8.850;2022-07-30T13:46:11;5.85;;;4.03;;
32333;SDS011;18810;53.040;8.850;2022-07-30T13:48:37;6.20;;;3.70;;
32333;SDS011;18810;53.040;8.850;2022-07-30T13:51:03;7.35;;;4.10;;
32333;SDS011;18810;53.040;8.850;2022-07-30T13:53:29;7.72;;;4.22;;
32333;SDS011;18810;53.040;8.850;2022-07-30T13:58:32;6.68;;;3.75;;
32333;SDS011;18810;53.040;8.850;2022-07-30T14:00:57;7.57;;;4.07;;
32333;SDS011;18810;53.040;8.850;2022-07-30T14:03:23;6.03;;;4.20;;
32333;SDS011;18810;53.040;8.850;2022-07-30T14:05:50;4.07;;;3.67;;
32333;SDS011;18810;53.040;8.850;2022-07-30T14:08:15;6.97;;;3.58;;
32333;SDS011;18810;53.040;8.850;2022-07-30T14:10:41;5.50;;;3.47;;
32333;SDS011;18810;53.040;8.850;2022-07-30T14:13:07;6.97;;;4.28;;
32333;SDS011;18810;53.040;8.850;2022-07-30T14:15:34;7.70;;;4.53;;
32333;SDS011;18810;53.040;8.850;2022-07-30T14:18:00;8.57;;;4.30;;
32333;SDS011;18810;53.040;8.850;2022-07-30T14:20:27;5.40;;;4.10;;
32333;SDS011;18810;53.040;8.850;2022-07-30T14:22:53;5.53;;;3.90;;
32333;SDS011;18810;53.040;8.850;2022-07-30T14:25:19;6.72;;;4.38;;
32333;SDS011;18810;53.040;8.850;2022-07-30T14:27:45;7.90;;;3.92;;
32333;SDS011;18810;53.040;8.850;2022-07-30T14:30:11;6.03;;;4.03;;
32333;SDS011;18810;53.040;8.850;2022-07-30T14:32:38;5.03;;;3.88;;
32333;SDS011;18810;53.040;8.850;2022-07-30T14:35:05;7.38;;;4.05;;
32333;SDS011;18810;53.040;8.850;2022-07-30T14:37:33;6.95;;;4.00;;
32333;SDS011;18810;53.040;8.850;2022-07-30T14:39:59;8.23;;;4.22;;
32333;SDS011;18810;53.040;8.850;2022-07-30T14:42:25;6.03;;;3.97;;
32333;SDS011;18810;53.040;8.850;2022-07-30T14:44:51;5.15;;;3.25;;
32333;SDS011;18810;53.040;8.850;2022-07-30T14:47:16;4.65;;;3.70;;
32333;SDS011;18810;53.040;8.850;2022-07-30T14:49:42;5.88;;;3.85;;
32333;SDS011;18810;53.040;8.850;2022-07-30T14:52:10;5.47;;;3.60;;
32333;SDS011;18810;53.040;8.850;2022-07-30T14:54:35;5.60;;;3.20;;
32333;SDS011;18810;53.040;8.850;2022-07-30T14:57:01;5.50;;;3.25;;
32333;SDS011;18810;53.040;8.850;2022-07-30T14:59:27;4.65;;;3.38;;
32333;SDS011;18810;53.040;8.850;2022-07-30T15:01:53;4.38;;;3.25;;
32333;SDS011;18810;53.040;8.850;2022-07-30T15:04:20;8.10;;;3.50;;
32333;SDS011;18810;53.040;8.850;2022-07-30T15:06:46;5.90;;;3.42;;
32333;SDS011;18810;53.040;8.850;2022-07-30T15:09:12;5.97;;;3.38;;
32333;SDS011;18810;53.040;8.850;2022-07-30T15:11:38;5.82;;;3.38;;
32333;SDS011;18810;53.040;8.850;2022-07-30T15:14:04;6.65;;;3.83;;
32333;SDS011;18810;53.040;8.850;2022-07-30T15:16:30;3.38;;;3.08;;
32333;SDS011;18810;53.040;8.850;2022-07-30T15:18:56;5.55;;;3.67;;
32333;SDS011;18810;53.040;8.850;2022-07-30T15:21:22;7.65;;;3.30;;
32333;SDS011;18810;53.040;8.850;2022-07-30T15:23:48;6.65;;;3.67;;
32333;SDS011;18810;53.040;8.850;2022-07-30T15:26:15;4.60;;;3.28;;
32333;SDS011;18810;53.040;8.850;2022-07-30T15:28:41;5.40;;;3.20;;
32333;SDS011;18810;53.040;8.850;2022-07-30T15:31:07;5.05;;;3.30;;
32333;SDS011;18810;53.040;8.850;2022-07-30T15:33:33;5.30;;;3.17;;